Portada
METAR-TAF:

METAR-TAF

Aeropuertos :

Aeropuerto de Gerona

Gerona, España

latitud: 41-54N, longitud: 002-46E, altitud: 143 m

Observación

El informe se hizo hace 30 minutos, a las 19:30 UTC
Viento calma
Temperatura 10°C
Humedad 100%
Presión 1018 hPa
Visibilidad 10 km o más
sin nubes por debajo de 1500 m y sin presencia de cumulonimbus.

METAR: LEGE 291930Z 00000KT CAVOK 10/10 Q1018

Hora: 21:00 (20:00 UTC)

Pronóstico

El informe se hizo hace 3 horas y 0 minutos, a las 17:00 UTC
Pronóstico válido del 29 a las 18 UTC al 30 a las 18 UTC
Viento 5 kt con dirección variable
Visibilidad 10 km o más
Escasas nubes a una altura de 2000 ft
Temporalmente
del 29 a las 20 UTC al 30 a las 09 UTC
Visibilidad: 2000 m
neblina
Temporalmente
del 29 a las 20 UTC al 30 a las 09 UTC
Visibilidad: 0200 m
niebla

TAF: LEGE 291700Z 2918/3018 VRB05KT 9999 FEW020 TX18/3013Z TN07/3006Z TEMPO 2920/3009 2000 BR TEMPO 2920/3009 0200 FG

Observaciones y pronósticos meteorológicos de más de 4000 aeropuertos (mensajes METAR y TAF).

Los puntos amarillos y rojos representan las estaciones disponibles.

Ponga el ratón en el punto deseado para ver el nombre de la estación.

Haga clic para ver las observaciones y los pronósticos meteorológicos.

Para cambiar el mapa : haga clic en los botones verdes con una cruz de color negro para hacer un zoom, en el botón verde con un guión para alejar o en las flechas verdes para mapas adyacentes.


METAR-TAF: